RJTA(METAR)
05/30 17:00
METAR RJTA 300800Z 19012KT 9999 FEW020 BKN/// 23/17 Q1020 RMK 2CU020
A3012=
戻る
トップページへ戻る
IMOC Co,.Ltd.